Time;durP1;ratioP1;P1;durP2;ratioP2;P2;SDS_P1;SDS_P2;PMS_P1;PMS_P2;Temp;Humidity;BMP_temperature;BMP_pressure;BME280_temperature;BME280_humidity;BME280_pressure;Samples;Min_cycle;Max_cycle;Signal;HPM_P1;HPM_P2
2021/09/21 00:01:40;;;;;;;15.85;10.02;;;359.20;2329.60;;;;;;5034561;28;20033;-76
2021/09/21 00:04:06;;;;;;;15.93;10.32;;;359.20;2329.60;;;;;;5034684;28;20465;-79
2021/09/21 00:06:32;;;;;;;15.82;11.65;;;359.10;2329.60;;;;;;5034718;28;20448;-78
2021/09/21 00:08:58;;;;;;;16.60;11.57;;;359.10;2329.60;;;;;;5033621;28;20469;-81
2021/09/21 00:11:24;;;;;;;14.90;11.32;;;359.10;2329.60;;;;;;5033582;28;20056;-81
2021/09/21 00:13:49;;;;;;;14.02;10.70;;;359.00;2329.60;;;;;;5033344;28;20044;-79
2021/09/21 00:16:15;;;;;;;18.67;11.27;;;359.00;2329.60;;;;;;5034638;28;20029;-81
2021/09/21 00:18:41;;;;;;;19.08;11.60;;;359.00;2329.60;;;;;;5034347;28;20021;-81
2021/09/21 00:21:07;;;;;;;19.13;11.82;;;359.00;2329.60;;;;;;5034500;28;20110;-81
2021/09/21 00:23:33;;;;;;;16.88;12.82;;;359.10;2329.60;;;;;;5034413;28;20102;-76
2021/09/21 00:25:59;;;;;;;17.13;11.48;;;359.10;2329.60;;;;;;5034278;28;20034;-81
2021/09/21 00:28:25;;;;;;;17.30;11.63;;;359.10;2329.60;;;;;;5034222;28;20024;-76
2021/09/21 00:30:52;;;;;;;20.80;11.63;;;359.10;2329.60;;;;;;5034079;28;20100;-81
2021/09/21 00:33:21;;;;;;;17.20;12.02;;;359.00;2329.60;;;;;;5032879;28;20470;-81
2021/09/21 00:35:48;;;;;;;15.13;10.75;;;359.10;2329.60;;;;;;5039314;28;20025;-77
2021/09/21 00:38:16;;;;;;;17.73;11.18;;;359.00;2329.60;;;;;;5040155;28;20021;-76
2021/09/21 00:40:43;;;;;;;17.20;11.07;;;359.10;2329.60;;;;;;5034037;28;20039;-80
2021/09/21 00:43:09;;;;;;;15.10;10.52;;;359.10;2329.60;;;;;;5033979;28;20022;-81
2021/09/21 00:45:36;;;;;;;14.48;10.70;;;359.20;2329.60;;;;;;5033802;28;20029;-76
2021/09/21 00:48:02;;;;;;;15.13;10.93;;;359.20;2329.60;;;;;;5034040;28;20025;-81
2021/09/21 00:50:29;;;;;;;20.55;11.30;;;359.00;2329.60;;;;;;5033870;28;20025;-76
2021/09/21 00:52:56;;;;;;;14.55;10.30;;;359.00;2329.60;;;;;;5032579;28;20032;-76
2021/09/21 00:55:22;;;;;;;19.08;11.43;;;359.00;2329.60;;;;;;5033451;28;20048;-76
2021/09/21 00:57:49;;;;;;;17.48;10.77;;;359.00;2329.60;;;;;;5033550;28;20034;-79
2021/09/21 01:00:16;;;;;;;15.23;10.80;;;359.00;2329.60;;;;;;5016068;28;20048;-81
2021/09/21 01:02:42;;;;;;;18.27;11.20;;;359.00;2329.60;;;;;;5033847;28;20018;-81
2021/09/21 01:05:09;;;;;;;16.00;11.45;;;359.10;2329.60;;;;;;5033460;28;20029;-79
2021/09/21 01:07:43;;;;;;;14.93;10.88;;;359.10;2329.60;;;;;;5033819;28;20017;-80
2021/09/21 01:10:16;;;;;;;16.42;10.40;;;359.10;2329.60;;;;;;5051793;28;20036;-81
2021/09/21 01:12:43;;;;;;;18.92;11.25;;;359.10;2329.60;;;;;;5034078;28;20021;-81
2021/09/21 01:15:10;;;;;;;14.45;10.18;;;359.10;2329.60;;;;;;5033785;28;20025;-79
2021/09/21 01:17:36;;;;;;;17.35;10.77;;;359.10;2329.60;;;;;;5039633;28;20009;-75
2021/09/21 01:20:04;;;;;;;18.23;11.50;;;359.10;2329.60;;;;;;5048051;28;20064;-75
2021/09/21 01:22:30;;;;;;;16.20;11.32;;;359.10;2329.60;;;;;;5043520;28;20034;-76
2021/09/21 01:24:55;;;;;;;17.42;11.23;;;359.10;2329.60;;;;;;5033182;28;20554;-75
2021/09/21 01:27:21;;;;;;;14.82;10.90;;;359.00;2329.60;;;;;;5033315;28;20026;-76
2021/09/21 01:29:47;;;;;;;14.45;11.45;;;359.00;2329.60;;;;;;5032997;28;20508;-77
2021/09/21 01:32:12;;;;;;;15.02;12.48;;;359.10;2329.60;;;;;;5033330;28;20025;-81
2021/09/21 01:34:38;;;;;;;17.58;11.75;;;359.00;2329.60;;;;;;5033293;28;20029;-81
2021/09/21 01:37:06;;;;;;;16.45;11.60;;;359.00;2329.60;;;;;;5033253;28;20013;-80
2021/09/21 01:39:32;;;;;;;18.40;11.80;;;359.00;2329.60;;;;;;5031922;28;20485;-82
2021/09/21 01:42:00;;;;;;;15.30;11.25;;;359.00;2329.60;;;;;;5033144;28;20071;-81
2021/09/21 01:44:26;;;;;;;17.17;12.48;;;359.00;2329.60;;;;;;5033004;28;20465;-76
2021/09/21 01:46:51;;;;;;;17.75;12.60;;;359.00;2329.60;;;;;;5032915;28;20105;-76
2021/09/21 01:49:19;;;;;;;21.17;13.13;;;359.00;2329.60;;;;;;5033025;28;20045;-80
2021/09/21 01:51:59;;;;;;;17.85;12.45;;;359.00;2329.60;;;;;;5033093;28;20048;-76
2021/09/21 01:54:42;;;;;;;19.55;12.88;;;359.10;2329.60;;;;;;5030644;28;20141;-81
2021/09/21 01:59:52;;;;;;;18.23;13.40;;;359.10;2329.60;;;;;;5032760;28;20508;-81
2021/09/21 02:02:18;;;;;;;22.77;14.70;;;359.10;2329.60;;;;;;5031838;28;20029;-81
2021/09/21 02:04:43;;;;;;;23.13;13.80;;;359.10;2329.60;;;;;;5033059;28;20055;-77
2021/09/21 02:07:09;;;;;;;26.33;14.43;;;359.10;2329.60;;;;;;5033418;28;20528;-76
2021/09/21 02:09:35;;;;;;;18.58;13.02;;;359.20;2329.60;;;;;;5026267;28;20021;-76
2021/09/21 02:12:01;;;;;;;21.20;13.25;;;359.30;2329.60;;;;;;5032886;28;20504;-78
2021/09/21 02:14:26;;;;;;;21.35;14.02;;;359.30;2329.60;;;;;;5032951;28;20461;-75
2021/09/21 02:16:54;;;;;;;22.73;14.00;;;359.30;2329.60;;;;;;5034496;28;20483;-82
2021/09/21 02:19:21;;;;;;;19.60;13.02;;;359.20;2329.60;;;;;;5036623;28;20072;-75
2021/09/21 02:21:47;;;;;;;22.33;12.77;;;359.30;2329.60;;;;;;5036356;28;20163;-77
2021/09/21 02:24:18;;;;;;;19.75;13.18;;;384.00;2329.60;;;;;;5036314;28;20014;-78
2021/09/21 02:26:45;;;;;;;20.48;13.05;;;384.00;2329.60;;;;;;5036329;28;20036;-81
2021/09/21 02:29:11;;;;;;;23.42;13.85;;;359.30;2329.60;;;;;;5035147;28;20033;-78
2021/09/21 02:31:37;;;;;;;21.05;11.88;;;359.30;2329.60;;;;;;5036354;28;20049;-81
2021/09/21 02:34:03;;;;;;;22.30;12.63;;;359.30;2329.60;;;;;;5036413;28;20052;-76
2021/09/21 02:36:29;;;;;;;19.48;12.57;;;384.00;2329.60;;;;;;5036403;28;20025;-81
2021/09/21 02:38:55;;;;;;;19.67;12.68;;;384.00;2329.60;;;;;;5036423;28;20036;-80
2021/09/21 02:41:22;;;;;;;21.85;14.27;;;384.00;2329.60;;;;;;5036197;28;20072;-77
2021/09/21 02:43:48;;;;;;;18.38;13.30;;;384.00;2329.60;;;;;;5036351;28;20430;-76
2021/09/21 02:46:14;;;;;;;15.73;11.98;;;384.00;2329.60;;;;;;5036068;28;20104;-76
2021/09/21 02:48:40;;;;;;;19.10;11.65;;;384.00;2329.60;;;;;;5036139;28;20076;-80
2021/09/21 02:51:06;;;;;;;16.70;11.48;;;384.00;2329.60;;;;;;5036169;28;20104;-75
2021/09/21 02:53:32;;;;;;;17.40;12.25;;;384.00;2329.60;;;;;;5034958;28;20378;-81
2021/09/21 02:55:58;;;;;;;19.48;11.98;;;359.30;2329.60;;;;;;5033349;28;20046;-75
2021/09/21 02:58:24;;;;;;;19.10;11.43;;;384.00;2329.60;;;;;;5035982;28;20029;-77
2021/09/21 03:00:53;;;;;;;19.08;12.68;;;384.00;2329.60;;;;;;5035620;28;20086;-81
2021/09/21 03:03:21;;;;;;;22.80;12.27;;;384.00;2329.60;;;;;;5033426;28;20016;-75
2021/09/21 03:05:55;;;;;;;20.90;11.73;;;384.10;2329.60;;;;;;5035870;28;20021;-76
2021/09/21 03:08:23;;;;;;;22.48;13.48;;;384.00;2329.60;;;;;;5033873;28;20049;-76
2021/09/21 03:18:30;;;;;;;17.08;11.82;;;359.30;2329.60;;;;;;5048988;28;20024;-81
2021/09/21 03:20:56;;;;;;;20.88;11.63;;;359.20;2329.60;;;;;;5049648;28;20037;-81
2021/09/21 03:23:22;;;;;;;17.88;11.00;;;384.00;2329.60;;;;;;5035568;28;20426;-77
2021/09/21 03:25:48;;;;;;;18.83;12.15;;;384.00;2329.60;;;;;;5035577;28;20489;-80
2021/09/21 03:28:14;;;;;;;18.13;11.63;;;384.00;2329.60;;;;;;5035397;28;20060;-79
2021/09/21 03:30:40;;;;;;;18.02;9.38;;;384.00;2329.60;;;;;;5035557;28;20465;-81
2021/09/21 03:33:06;;;;;;;12.82;8.43;;;359.20;2329.60;;;;;;5035653;28;20469;-81
2021/09/21 03:35:31;;;;;;;24.38;13.15;;;358.90;2329.60;;;;;;5035470;28;20053;-81
2021/09/21 03:37:57;;;;;;;19.08;12.90;;;359.00;2329.60;;;;;;5035122;28;20501;-80
2021/09/21 03:40:23;;;;;;;16.45;11.68;;;359.00;2329.60;;;;;;5035337;28;20071;-78
2021/09/21 03:42:49;;;;;;;19.60;12.95;;;359.00;2329.60;;;;;;5033932;28;20022;-81
2021/09/21 03:45:15;;;;;;;17.33;11.40;;;359.00;2329.60;;;;;;5035008;28;20044;-79
2021/09/21 03:47:40;;;;;;;19.10;12.80;;;359.00;2329.60;;;;;;5034916;28;20049;-76
2021/09/21 03:50:07;;;;;;;18.20;11.20;;;359.00;2329.60;;;;;;5034899;28;20033;-80
2021/09/21 03:52:33;;;;;;;16.27;11.80;;;359.10;2329.60;;;;;;5033914;28;20049;-81
2021/09/21 03:54:58;;;;;;;20.25;12.30;;;359.20;2329.60;;;;;;5034913;28;20034;-81
2021/09/21 03:57:24;;;;;;;16.45;11.95;;;359.20;2329.60;;;;;;5033493;28;20042;-76
2021/09/21 03:59:50;;;;;;;21.95;11.45;;;359.20;2329.60;;;;;;5033667;28;20026;-76
2021/09/21 04:02:16;;;;;;;18.67;11.85;;;359.30;2329.60;;;;;;5034554;28;20358;-80
2021/09/21 04:04:41;;;;;;;18.35;12.98;;;359.30;2329.60;;;;;;5033857;28;20030;-79
2021/09/21 04:07:07;;;;;;;19.20;12.30;;;359.30;2329.60;;;;;;5033765;28;20022;-80
2021/09/21 04:09:33;;;;;;;20.38;12.82;;;359.30;2329.60;;;;;;5034723;28;20025;-81
2021/09/21 04:11:59;;;;;;;18.23;13.32;;;359.20;2329.60;;;;;;5033498;28;20044;-81
2021/09/21 04:14:25;;;;;;;20.50;13.10;;;359.30;2329.60;;;;;;5034593;28;20465;-76
2021/09/21 04:16:50;;;;;;;17.33;11.98;;;359.30;2329.60;;;;;;5034474;28;20359;-79
2021/09/21 04:19:16;;;;;;;19.25;12.80;;;384.00;2329.60;;;;;;5034449;28;20449;-81
2021/09/21 04:21:42;;;;;;;16.73;12.07;;;384.00;2329.60;;;;;;5032924;28;20034;-76
2021/09/21 04:24:08;;;;;;;15.27;12.00;;;384.00;2329.60;;;;;;5033187;28;20022;-81
2021/09/21 04:26:33;;;;;;;18.40;12.57;;;359.20;2329.60;;;;;;5034299;28;20401;-76
2021/09/21 04:28:59;;;;;;;21.83;12.43;;;359.00;2329.60;;;;;;5034292;28;20026;-81
2021/09/21 04:31:28;;;;;;;18.25;13.27;;;359.00;2329.60;;;;;;5034109;28;20446;-80
2021/09/21 04:33:54;;;;;;;20.83;12.68;;;359.10;2329.60;;;;;;5034262;28;20083;-76
2021/09/21 04:36:21;;;;;;;23.17;15.27;;;384.10;2329.60;;;;;;5034073;28;20026;-75
2021/09/21 04:38:47;;;;;;;24.60;14.88;;;359.20;2329.60;;;;;;5033806;28;20033;-81
2021/09/21 04:41:13;;;;;;;24.73;14.52;;;359.00;2329.60;;;;;;5034317;28;20037;-76
2021/09/21 04:43:39;;;;;;;18.27;12.65;;;358.80;2329.60;;;;;;5034261;28;20025;-81
2021/09/21 04:46:07;;;;;;;17.52;11.73;;;358.90;2329.60;;;;;;5034064;28;20028;-76
2021/09/21 04:48:33;;;;;;;19.42;11.38;;;358.90;2329.60;;;;;;5041250;28;20080;-76
2021/09/21 04:50:59;;;;;;;22.48;11.48;;;358.90;2329.60;;;;;;5049672;28;20017;-80
2021/09/21 04:53:25;;;;;;;19.80;11.48;;;359.10;2329.60;;;;;;5041140;28;20529;-76
2021/09/21 04:55:51;;;;;;;17.75;12.63;;;359.10;2329.60;;;;;;5033640;28;20048;-80
2021/09/21 04:58:17;;;;;;;20.08;12.52;;;359.20;2329.60;;;;;;5033735;28;20382;-78
2021/09/21 05:00:42;;;;;;;16.48;11.68;;;359.20;2329.60;;;;;;5033733;28;20473;-80
2021/09/21 05:03:08;;;;;;;19.60;11.88;;;359.30;2329.60;;;;;;5033621;28;20017;-75
2021/09/21 05:05:34;;;;;;;19.80;12.27;;;359.30;2329.60;;;;;;5033448;28;20025;-78
2021/09/21 05:07:59;;;;;;;18.70;11.75;;;359.20;2329.60;;;;;;5032410;28;20030;-76
2021/09/21 05:10:27;;;;;;;15.85;11.63;;;359.10;2329.60;;;;;;5034628;28;20048;-81
2021/09/21 05:12:53;;;;;;;20.48;11.57;;;359.20;2329.60;;;;;;5043830;28;20060;-76
2021/09/21 05:15:18;;;;;;;20.60;12.93;;;359.30;2329.60;;;;;;5033676;28;20025;-76
2021/09/21 05:17:44;;;;;;;16.77;11.35;;;359.20;2329.60;;;;;;5033347;28;20017;-76
2021/09/21 05:20:10;;;;;;;20.05;12.35;;;359.00;2329.60;;;;;;5033214;28;20543;-77
2021/09/21 05:22:37;;;;;;;17.58;11.13;;;359.00;2329.60;;;;;;5032038;28;20568;-76
2021/09/21 05:25:03;;;;;;;14.82;10.63;;;359.00;2329.60;;;;;;5033077;28;20482;-79
2021/09/21 05:27:29;;;;;;;19.38;11.07;;;359.20;2329.60;;;;;;5031898;28;20049;-76
2021/09/21 05:29:55;;;;;;;18.20;11.35;;;359.20;2329.60;;;;;;5033078;28;20496;-81
2021/09/21 05:32:21;;;;;;;18.85;11.85;;;359.00;2329.60;;;;;;5032905;28;20504;-76
2021/09/21 05:34:47;;;;;;;19.35;12.48;;;359.20;2329.60;;;;;;5033035;28;20025;-76
2021/09/21 05:37:12;;;;;;;16.88;11.07;;;359.00;2329.60;;;;;;5032980;28;20033;-76
2021/09/21 05:39:38;;;;;;;20.35;12.18;;;359.10;2329.60;;;;;;5032651;28;20495;-78
2021/09/21 05:42:04;;;;;;;20.67;12.38;;;359.20;2329.60;;;;;;5032903;28;20030;-79
2021/09/21 05:44:30;;;;;;;18.40;12.30;;;359.00;2329.60;;;;;;5032853;28;20014;-79
2021/09/21 05:46:55;;;;;;;19.42;12.38;;;359.20;2329.60;;;;;;5031081;28;20109;-77
2021/09/21 05:49:21;;;;;;;17.48;10.65;;;359.30;2329.60;;;;;;5031652;28;20098;-75
2021/09/21 05:51:47;;;;;;;19.52;10.63;;;384.00;2329.60;;;;;;5035063;28;20025;-77
2021/09/21 05:54:13;;;;;;;17.67;11.65;;;384.00;2329.60;;;;;;5036869;28;20426;-79
2021/09/21 05:56:39;;;;;;;17.77;11.63;;;359.20;2329.60;;;;;;5035634;28;20057;-79
2021/09/21 05:59:05;;;;;;;17.60;11.02;;;384.00;2329.60;;;;;;5038928;28;20057;-75
2021/09/21 06:01:32;;;;;;;17.25;11.75;;;384.10;2329.60;;;;;;5037441;28;20432;-76
2021/09/21 06:03:57;;;;;;;18.95;11.65;;;384.10;2329.60;;;;;;5036563;28;20105;-76
2021/09/21 06:06:24;;;;;;;17.48;11.48;;;384.10;2329.60;;;;;;5035389;28;20075;-76
2021/09/21 06:08:50;;;;;;;17.25;10.57;;;384.30;2329.60;;;;;;5036550;28;20087;-75
2021/09/21 06:11:27;;;;;;;22.02;10.57;;;384.30;2329.60;;;;;;5036383;28;20034;-75
2021/09/21 06:13:55;;;;;;;14.88;11.02;;;384.00;2329.60;;;;;;5025904;28;20035;-79
2021/09/21 06:16:22;;;;;;;17.27;11.52;;;384.10;2329.60;;;;;;5035784;28;20432;-76
2021/09/21 06:18:47;;;;;;;17.60;10.52;;;384.20;2329.60;;;;;;5041640;28;20021;-76
2021/09/21 06:21:13;;;;;;;19.05;11.70;;;384.30;2329.60;;;;;;5042588;28;20042;-78
2021/09/21 06:23:39;;;;;;;17.75;10.77;;;384.40;2329.60;;;;;;5047836;28;20408;-77
2021/09/21 06:26:05;;;;;;;17.13;11.52;;;384.50;2329.60;;;;;;5036119;28;20040;-75
2021/09/21 06:28:31;;;;;;;17.20;11.70;;;384.50;2329.60;;;;;;5036131;28;20018;-78
2021/09/21 06:30:57;;;;;;;18.50;12.70;;;384.60;2329.60;;;;;;5036342;28;20025;-78
2021/09/21 06:33:24;;;;;;;17.92;11.90;;;384.60;2329.60;;;;;;5036140;28;20034;-78
2021/09/21 06:35:50;;;;;;;19.30;13.20;;;384.70;2329.60;;;;;;5036139;28;20021;-76
2021/09/21 06:38:16;;;;;;;19.13;13.32;;;384.40;2329.60;;;;;;5034661;28;20496;-79
2021/09/21 06:40:42;;;;;;;20.83;13.48;;;384.70;2329.60;;;;;;5034598;28;20118;-77
2021/09/21 06:43:07;;;;;;;20.15;12.40;;;384.60;2329.60;;;;;;5035963;28;20048;-81
2021/09/21 06:45:33;;;;;;;20.50;12.30;;;384.60;2329.60;;;;;;5049822;28;20025;-76
2021/09/21 06:47:59;;;;;;;14.98;11.63;;;384.60;2329.60;;;;;;5056058;28;20031;-79
2021/09/21 06:50:25;;;;;;;16.17;11.90;;;384.70;2329.60;;;;;;5043953;28;20021;-76
2021/09/21 06:52:50;;;;;;;15.90;12.20;;;384.70;2329.60;;;;;;5053594;28;20031;-76
2021/09/21 06:55:16;;;;;;;17.70;12.73;;;384.80;2329.60;;;;;;5055677;28;20025;-82
2021/09/21 06:57:49;;;;;;;21.70;12.45;;;384.70;2329.60;;;;;;5038441;28;20029;-78
2021/09/21 07:00:15;;;;;;;18.52;12.25;;;384.60;2329.60;;;;;;5035423;28;20033;-78
2021/09/21 07:02:42;;;;;;;21.67;13.55;;;384.40;2329.60;;;;;;5033624;28;20393;-78
2021/09/21 07:05:08;;;;;;;27.75;18.17;;;384.60;2329.60;;;;;;5035652;28;20128;-79
2021/09/21 07:07:34;;;;;;;37.75;27.92;;;384.70;2329.60;;;;;;5034311;28;20437;-76
2021/09/21 07:10:00;;;;;;;27.15;23.10;;;384.80;2329.60;;;;;;5034277;28;20064;-80
2021/09/21 07:12:26;;;;;;;40.85;30.13;;;384.90;2329.60;;;;;;5035709;28;20489;-76
2021/09/21 07:14:51;;;;;;;29.35;22.67;;;409.60;2355.20;;;;;;5034172;28;20112;-80
2021/09/21 07:17:17;;;;;;;17.85;13.63;;;409.60;2355.20;;;;;;5035704;28;20030;-79
2021/09/21 07:19:43;;;;;;;19.48;14.10;;;409.70;2355.20;;;;;;5035282;28;20123;-77
2021/09/21 07:22:08;;;;;;;19.55;14.48;;;409.70;2355.20;;;;;;5035194;28;20021;-76
2021/09/21 07:24:34;;;;;;;23.40;14.30;;;409.80;2355.20;;;;;;5035320;28;20022;-75
2021/09/21 07:27:00;;;;;;;18.27;13.63;;;410.00;2355.20;;;;;;5035442;28;20025;-80
2021/09/21 07:29:26;;;;;;;18.60;13.13;;;410.10;2355.20;;;;;;5035532;28;20370;-76
2021/09/21 07:31:52;;;;;;;21.30;15.23;;;410.20;2355.20;;;;;;5036314;28;20108;-79
2021/09/21 07:34:18;;;;;;;15.38;12.13;;;410.20;2355.20;;;;;;5034633;28;20052;-82
2021/09/21 07:36:45;;;;;;;26.55;20.27;;;410.00;2355.20;;;;;;5034848;28;20065;-77
2021/09/21 07:39:11;;;;;;;26.40;14.40;;;410.20;2355.20;;;;;;5034948;28;20024;-76
2021/09/21 07:41:38;;;;;;;27.63;18.77;;;410.20;2355.20;;;;;;5034820;28;20428;-77
2021/09/21 07:44:04;;;;;;;62.30;38.42;;;410.20;2355.20;;;;;;5036445;28;20057;-77
2021/09/21 07:46:30;;;;;;;73.05;41.88;;;410.20;2355.20;;;;;;5045908;28;20045;-80
2021/09/21 07:48:55;;;;;;;33.50;22.83;;;410.20;2355.20;;;;;;5035033;28;20025;-76
2021/09/21 07:51:21;;;;;;;23.17;16.23;;;410.20;2355.20;;;;;;5047719;28;20045;-80
2021/09/21 07:53:47;;;;;;;29.17;21.33;;;410.20;2355.20;;;;;;5046501;28;20549;-76
2021/09/21 07:56:12;;;;;;;19.63;14.48;;;410.20;2355.20;;;;;;5050833;28;20092;-81
2021/09/21 07:58:38;;;;;;;20.15;13.55;;;410.20;2355.20;;;;;;5044435;28;20032;-76
2021/09/21 08:01:04;;;;;;;19.15;12.63;;;410.20;2355.20;;;;;;5038965;28;20029;-78
2021/09/21 08:03:29;;;;;;;16.55;13.35;;;410.20;2355.20;;;;;;5042297;28;20100;-76
2021/09/21 08:05:55;;;;;;;18.20;13.18;;;410.20;2355.20;;;;;;5054419;28;20426;-77
2021/09/21 08:08:21;;;;;;;24.08;14.82;;;410.10;2355.20;;;;;;5039167;28;20024;-77
2021/09/21 08:10:47;;;;;;;16.02;12.18;;;410.20;2355.20;;;;;;5054255;28;20032;-76
2021/09/21 08:13:12;;;;;;;18.48;12.35;;;410.20;2355.20;;;;;;5053758;28;20144;-76
2021/09/21 08:15:38;;;;;;;17.58;12.35;;;410.20;2355.20;;;;;;5053790;28;20025;-76
2021/09/21 08:18:07;;;;;;;17.05;12.38;;;410.20;2355.20;;;;;;5051357;28;20036;-76
2021/09/21 08:20:33;;;;;;;17.67;11.95;;;410.30;2355.20;;;;;;5033753;28;20385;-76
2021/09/21 08:22:59;;;;;;;15.45;13.00;;;410.30;2355.20;;;;;;5033820;28;20018;-75
2021/09/21 08:25:26;;;;;;;19.45;12.15;;;410.50;2355.20;;;;;;5032643;28;20042;-77
2021/09/21 08:27:52;;;;;;;18.65;12.18;;;410.50;2355.20;;;;;;5033815;28;20068;-78
2021/09/21 08:30:19;;;;;;;18.55;12.27;;;410.50;2355.20;;;;;;5033859;28;20017;-76
2021/09/21 08:32:46;;;;;;;18.52;14.10;;;435.20;2355.20;;;;;;5032793;28;20022;-80
2021/09/21 08:35:12;;;;;;;17.52;13.18;;;435.20;2355.20;;;;;;5033684;28;20493;-76
2021/09/21 08:37:38;;;;;;;19.50;13.07;;;410.50;2355.20;;;;;;5033869;28;20108;-76
2021/09/21 08:40:05;;;;;;;17.85;12.95;;;410.40;2355.20;;;;;;5044527;28;20128;-77
2021/09/21 08:42:31;;;;;;;17.88;12.55;;;435.20;2355.20;;;;;;5033580;28;20117;-78
2021/09/21 08:44:56;;;;;;;21.60;12.98;;;435.20;2355.20;;;;;;5034012;28;20548;-77
2021/09/21 08:47:22;;;;;;;16.95;13.50;;;435.30;2355.20;;;;;;5048654;28;20059;-82
2021/09/21 08:49:48;;;;;;;15.32;11.82;;;435.50;2355.20;;;;;;5053884;28;20350;-78
2021/09/21 08:52:14;;;;;;;17.50;12.48;;;435.50;2355.20;;;;;;5053657;28;20051;-85
2021/09/21 08:54:40;;;;;;;17.45;12.30;;;435.50;2355.20;;;;;;5053623;28;20021;-77
2021/09/21 08:57:07;;;;;;;18.08;13.68;;;435.60;2355.20;;;;;;5053828;28;20115;-83
2021/09/21 08:59:36;;;;;;;18.08;12.25;;;435.50;2355.20;;;;;;5053832;28;20055;-76
2021/09/21 09:02:11;;;;;;;17.15;12.50;;;435.60;2355.20;;;;;;5036165;28;20573;-80
2021/09/21 09:04:38;;;;;;;16.50;12.10;;;435.80;2355.20;;;;;;5033430;28;20028;-81
2021/09/21 09:07:05;;;;;;;17.65;12.25;;;435.80;2355.20;;;;;;5032330;28;20021;-77
2021/09/21 09:09:35;;;;;;;19.08;12.23;;;435.90;2355.20;;;;;;5033720;28;20025;-83
2021/09/21 09:12:06;;;;;;;17.90;11.63;;;436.10;2355.20;;;;;;5039521;28;20098;-78
2021/09/21 09:14:37;;;;;;;18.48;12.75;;;436.10;2355.20;;;;;;5033541;28;20068;-83
2021/09/21 09:17:06;;;;;;;16.25;12.20;;;436.10;2355.20;;;;;;5032623;28;20457;-82
2021/09/21 09:19:43;;;;;;;16.98;11.60;;;460.80;2380.80;;;;;;5033321;28;20021;-81
2021/09/21 09:22:15;;;;;;;14.65;11.40;;;460.90;2380.80;;;;;;5032165;28;20033;-78
2021/09/21 09:24:53;;;;;;;17.27;11.75;;;461.00;2380.80;;;;;;5031881;28;20049;-78
2021/09/21 09:27:41;;;;;;;14.90;11.27;;;460.90;2380.80;;;;;;5032091;28;20489;-79
2021/09/21 09:30:09;;;;;;;16.30;11.35;;;461.20;2380.80;;;;;;5031546;28;20041;-76
2021/09/21 09:32:53;;;;;;;16.55;10.73;;;461.30;2380.80;;;;;;5031877;28;20079;-78
2021/09/21 09:35:31;;;;;;;18.38;11.45;;;461.50;2380.80;;;;;;5042203;28;20113;-79
2021/09/21 09:37:59;;;;;;;13.63;10.50;;;461.50;2355.20;;;;;;5033244;28;20076;-79
2021/09/21 09:40:26;;;;;;;18.63;11.70;;;461.50;2329.60;;;;;;5032863;28;20052;-78
2021/09/21 09:42:52;;;;;;;14.55;10.95;;;461.60;2355.20;;;;;;5033030;28;20049;-77
2021/09/21 09:45:28;;;;;;;18.58;10.05;;;486.40;2329.60;;;;;;5043826;28;20043;-79
2021/09/21 09:47:55;;;;;;;15.98;10.40;;;486.40;2278.40;;;;;;5052966;28;20207;-77
2021/09/21 09:50:29;;;;;;;14.30;9.70;;;486.40;2278.40;;;;;;5041680;28;20041;-79
2021/09/21 09:53:23;;;;;;;11.25;8.70;;;486.60;2278.40;;;;;;5050491;28;20029;-85
2021/09/21 09:55:56;;;;;;;13.02;9.63;;;486.90;2150.40;;;;;;5036127;28;20042;-77
2021/09/21 09:58:23;;;;;;;14.77;10.98;;;487.00;2099.20;;;;;;5044221;28;20041;-77
2021/09/21 10:00:49;;;;;;;10.68;7.97;;;487.30;2124.80;;;;;;5045228;28;20033;-79
2021/09/21 10:03:16;;;;;;;10.18;7.38;;;486.80;2073.60;;;;;;5046055;28;20025;-80
2021/09/21 10:05:42;;;;;;;11.63;7.85;;;487.00;2124.80;;;;;;5043561;28;20025;-77
2021/09/21 10:08:09;;;;;;;10.20;7.50;;;487.10;2022.40;;;;;;5033436;28;20026;-80
2021/09/21 10:10:38;;;;;;;14.38;9.93;;;;;;;;;;5032808;28;20025;-81
2021/09/21 10:13:08;;;;;;;8.70;6.03;;;512.10;2022.40;;;;;;5042955;28;20048;-78
2021/09/21 10:15:34;;;;;;;11.23;6.85;;;;;;;;;;5031345;28;20029;-76
2021/09/21 10:18:01;;;;;;;11.10;7.00;;;;;;;;;;5032477;28;20024;-78
2021/09/21 10:20:32;;;;;;;9.48;6.35;;;;;;;;;;5030902;28;20065;-81
2021/09/21 10:22:58;;;;;;;8.65;5.60;;;;;;;;;;5031379;28;20021;-79
2021/09/21 10:25:39;;;;;;;9.55;6.88;;;512.20;1868.80;;;;;;5035796;28;20024;-78
2021/09/21 10:28:20;;;;;;;8.13;6.03;;;512.00;1945.60;;;;;;5038480;28;20039;-78
2021/09/21 10:30:54;;;;;;;10.73;7.32;;;487.10;1971.20;;;;;;5032383;28;20032;-78
2021/09/21 10:33:22;;;;;;;6.40;4.57;;;487.20;1894.40;;;;;;5043967;28;20032;-77
2021/09/21 10:35:50;;;;;;;6.45;4.68;;;512.00;1843.20;;;;;;5031002;28;20021;-79
2021/09/21 10:38:18;;;;;;;5.95;4.15;;;512.10;1792.00;;;;;;5046309;28;20453;-77
2021/09/21 10:40:50;;;;;;;7.35;4.70;;;512.30;1792.00;;;;;;5034728;28;20033;-77
2021/09/21 10:43:30;;;;;;;8.40;5.55;;;512.50;1740.80;;;;;;5035895;28;20049;-77
2021/09/21 10:46:09;;;;;;;8.63;5.00;;;;;;;;;;5035560;28;20489;-77
2021/09/21 10:48:38;;;;;;;8.68;5.05;;;537.60;1689.60;;;;;;5034864;28;20047;-77
2021/09/21 10:51:06;;;;;;;10.68;5.10;;;537.80;1664.00;;;;;;5033303;28;20509;-77
2021/09/21 10:53:32;;;;;;;10.48;5.72;;;537.70;1766.40;;;;;;5034359;28;20469;-77
2021/09/21 10:56:04;;;;;;;8.00;5.65;;;512.80;1766.40;;;;;;5035525;28;20584;-78
2021/09/21 10:58:31;;;;;;;11.50;6.50;;;512.70;1715.20;;;;;;5039709;28;20029;-77
2021/09/21 11:00:57;;;;;;;8.35;6.35;;;512.80;1740.80;;;;;;5039331;28;20056;-79
2021/09/21 11:03:24;;;;;;;8.05;6.13;;;537.60;1766.40;;;;;;5045077;28;20133;-78
2021/09/21 11:05:50;;;;;;;7.63;5.80;;;538.10;1817.60;;;;;;5035548;28;20049;-78
2021/09/21 11:08:18;;;;;;;8.68;6.30;;;538.10;1715.20;;;;;;5034179;28;20018;-77
2021/09/21 11:10:48;;;;;;;9.50;6.40;;;537.80;1766.40;;;;;;5035588;28;20032;-77
2021/09/21 11:13:18;;;;;;;7.22;5.20;;;537.60;1740.80;;;;;;5035572;28;20041;-78
2021/09/21 11:15:45;;;;;;;6.80;4.47;;;512.50;1740.80;;;;;;5033376;28;20095;-78
2021/09/21 11:18:15;;;;;;;7.63;5.25;;;512.20;1766.40;;;;;;5031613;28;20072;-78
2021/09/21 11:20:52;;;;;;;6.70;4.70;;;512.30;1715.20;;;;;;5033521;28;20481;-77
2021/09/21 11:23:19;;;;;;;7.10;5.28;;;537.60;1715.20;;;;;;5043625;28;20075;-77
2021/09/21 11:25:46;;;;;;;7.22;4.82;;;537.60;1664.00;;;;;;5035094;28;20112;-78
2021/09/21 11:28:14;;;;;;;7.65;4.57;;;512.80;1715.20;;;;;;5035069;28;20025;-78
2021/09/21 11:30:40;;;;;;;8.43;4.38;;;512.70;1664.00;;;;;;5038237;28;20104;-77
2021/09/21 11:33:15;;;;;;;11.82;6.68;;;512.20;1664.00;;;;;;5041496;28;20036;-77
2021/09/21 11:35:56;;;;;;;6.00;4.45;;;512.00;1740.80;;;;;;5034530;28;20022;-77
2021/09/21 11:38:24;;;;;;;5.43;4.35;;;512.00;1664.00;;;;;;5032568;28;20075;-77
2021/09/21 11:40:51;;;;;;;7.47;5.45;;;512.00;1740.80;;;;;;5034562;28;20117;-77
2021/09/21 11:43:18;;;;;;;10.75;5.47;;;487.30;1740.80;;;;;;5032181;28;20057;-77
2021/09/21 11:45:47;;;;;;;14.07;5.45;;;487.20;1792.00;;;;;;5034673;28;20021;-77
2021/09/21 11:48:14;;;;;;;9.93;4.93;;;487.30;1817.60;;;;;;5033923;28;20489;-78
2021/09/21 11:50:41;;;;;;;5.68;3.97;;;487.20;1792.00;;;;;;5034045;28;20025;-78
2021/09/21 11:53:09;;;;;;;6.60;3.65;;;487.10;1766.40;;;;;;5034640;28;20104;-77
2021/09/21 11:55:41;;;;;;;5.75;4.20;;;487.00;1715.20;;;;;;5041617;28;20041;-77
2021/09/21 11:58:11;;;;;;;5.53;3.05;;;487.00;1689.60;;;;;;5033164;28;20044;-77
2021/09/21 12:00:40;;;;;;;9.95;6.80;;;486.80;1715.20;;;;;;5031929;28;20120;-77
2021/09/21 12:03:10;;;;;;;6.80;4.20;;;487.00;1664.00;;;;;;5034514;28;20097;-77
2021/09/21 12:05:41;;;;;;;6.78;4.72;;;487.00;1638.40;;;;;;5034552;28;20108;-78
2021/09/21 12:08:12;;;;;;;4.32;3.25;;;487.00;1612.80;;;;;;5034353;28;20060;-77
2021/09/21 12:10:38;;;;;;;6.22;3.40;;;487.10;1638.40;;;;;;5033593;28;20029;-77
2021/09/21 12:13:16;;;;;;;5.68;4.00;;;487.20;1612.80;;;;;;5034350;28;20060;-77
2021/09/21 12:15:45;;;;;;;6.70;5.05;;;487.20;1612.80;;;;;;5034297;28;20017;-77